»·PEaware :: N522PM KOLM-KPDX

N522PM :: KOLM-KPDX

FLIGHT INFORMATION

Flight Status: Arrived
Operator: Privately registered:
United States
More flights under this callsign
Pilot: Bruce B. (6887)
Aircraft: Unknown
(LEG2)
More flights by this aircraft type
Origin: KOLM Olympia
United States
Destination: KPDX Portland Intl
United States
More flights between these airports :: More routes between these airports
Route:
File this flight plan on PilotEdge
Remarks:
Altitude:
(Current/Filed)
7,500ft
Speed:
(Current/Filed)
230kts
Departed: 18-Sep-22 11:11 AM
Arrived: 18-Sep-22 11:41 AM
Distance/Time
Traveled:
84nm/0:30
Distance/Time
To Go:
Arrived

Flight Plot

Page will automatically refresh every two minutes.

Flight plan parsing failed; only flown route is shown


Map Options




Map Legend


Flown Route
Filed Route
Departure Airport
Arrival Airport
Navaid (VOR, NDB)
Fix

Horizontal Profiles

Position Reports

Time Latitude Longitude Heading Altitude Ground
Speed
18-Sep-22 10:51 46.975892 -122.899114 99 201ft 0kts
18-Sep-22 10:52 46.975892 -122.899114 99 201ft 0kts
18-Sep-22 10:53 46.975891 -122.899112 99 201ft 0kts
18-Sep-22 10:54 46.975891 -122.899110 99 201ft 0kts
18-Sep-22 10:55 46.975891 -122.899108 99 201ft 0kts
18-Sep-22 10:56 46.975891 -122.899106 99 201ft 0kts
18-Sep-22 10:57 46.975890 -122.899104 99 201ft 0kts
18-Sep-22 10:58 46.975890 -122.899102 99 201ft 0kts
18-Sep-22 10:59 46.975890 -122.899100 99 201ft 0kts
18-Sep-22 11:00 46.975890 -122.899099 99 201ft 0kts
18-Sep-22 11:01 46.975815 -122.899129 266 201ft 1kts
18-Sep-22 11:02 46.976129 -122.900445 89 201ft 6kts
18-Sep-22 11:03 46.973695 -122.897663 140 201ft 15kts
18-Sep-22 11:04 46.971839 -122.897475 227 201ft 11kts
18-Sep-22 11:05 46.969267 -122.900503 190 201ft 9kts
18-Sep-22 11:06 46.963794 -122.902017 198 201ft 19kts
18-Sep-22 11:07 46.962986 -122.904766 187 201ft 11kts
18-Sep-22 11:08 46.961588 -122.905867 291 201ft 0kts
18-Sep-22 11:09 46.961625 -122.906098 281 201ft 9kts
18-Sep-22 11:10 46.971244 -122.903890 11 323ft 106kts
18-Sep-22 11:11 46.959831 -122.928289 186 2042ft 131kts
18-Sep-22 11:12 46.923668 -122.932707 170 3733ft 132kts
18-Sep-22 11:13 46.888721 -122.926454 168 5612ft 110kts
18-Sep-22 11:14 46.853203 -122.918953 163 6622ft 154kts
18-Sep-22 11:15 46.806451 -122.906814 165 7329ft 180kts
18-Sep-22 11:16 46.753193 -122.893039 166 7489ft 208kts
18-Sep-22 11:17 46.694266 -122.877833 166 7563ft 218kts
18-Sep-22 11:18 46.633594 -122.862135 166 7563ft 222kts
18-Sep-22 11:19 46.572527 -122.846353 166 7564ft 223kts
18-Sep-22 11:20 46.511067 -122.830493 166 7562ft 225kts
18-Sep-22 11:21 46.449077 -122.814534 165 7552ft 224kts
18-Sep-22 11:22 46.387613 -122.801120 170 7550ft 224kts
18-Sep-22 11:23 46.325141 -122.793197 169 7540ft 224kts
18-Sep-22 11:24 46.263365 -122.783090 169 7541ft 224kts
18-Sep-22 11:25 46.200913 -122.773301 169 7534ft 224kts
18-Sep-22 11:26 46.139144 -122.763883 169 7532ft 222kts
18-Sep-22 11:27 46.077763 -122.754724 169 7529ft 222kts
18-Sep-22 11:28 46.016146 -122.745651 168 7525ft 221kts
18-Sep-22 11:29 45.960471 -122.734809 166 7517ft 191kts
18-Sep-22 11:30 45.910974 -122.725755 167 7275ft 172kts
18-Sep-22 11:31 45.863007 -122.716820 167 5912ft 176kts
18-Sep-22 11:32 45.813494 -122.706584 167 4532ft 180kts
18-Sep-22 11:33 45.767134 -122.696038 167 3203ft 142kts
18-Sep-22 11:34 45.732996 -122.688298 165 2986ft 122kts
18-Sep-22 11:35 45.700584 -122.682873 174 2350ft 118kts
18-Sep-22 11:36 45.668842 -122.684187 182 1885ft 113kts
18-Sep-22 11:37 45.637324 -122.683851 177 1512ft 115kts
18-Sep-22 11:38 45.617310 -122.652560 119 985ft 121kts
18-Sep-22 11:39 45.601857 -122.613469 115 345ft 105kts
18-Sep-22 11:40 45.592271 -122.589045 116 33ft 24kts
18-Sep-22 11:41 45.588853 -122.582038 208 33ft 11kts
18-Sep-22 11:42 45.587448 -122.584266 297 33ft 0kts

Navigation Log

Ident Type
Flight plan parsing failed, navigation log unavailable